createdAt,value
2023-03-12T00:00:14.007Z,75.12
2023-03-12T00:01:13.834Z,75.01
2023-03-12T00:02:13.877Z,75.01
2023-03-12T00:03:13.819Z,75.01
2023-03-12T00:04:13.797Z,74.91
2023-03-12T00:05:13.812Z,74.80
2023-03-12T00:06:13.770Z,74.80
2023-03-12T00:07:13.784Z,75.12
2023-03-12T00:08:13.776Z,75.01
2023-03-12T00:09:13.775Z,74.28
2023-03-12T00:10:13.729Z,74.18
2023-03-12T00:11:13.740Z,74.28
2023-03-12T00:12:13.710Z,74.49
2023-03-12T00:13:13.718Z,74.38
2023-03-12T00:14:13.693Z,74.28
2023-03-12T00:15:13.682Z,74.28
2023-03-12T00:16:13.718Z,74.07
2023-03-12T00:17:13.684Z,74.07
2023-03-12T00:18:13.638Z,73.86
2023-03-12T00:19:13.648Z,74.07
2023-03-12T00:20:13.627Z,73.86
2023-03-12T00:21:13.630Z,73.86
2023-03-12T00:22:13.618Z,74.18
2023-03-12T00:23:13.597Z,74.49
2023-03-12T00:24:13.580Z,74.60
2023-03-12T00:25:13.582Z,74.60
2023-03-12T00:26:13.569Z,74.60
2023-03-12T00:27:13.574Z,74.70
2023-03-12T00:28:13.540Z,74.60
2023-03-12T00:29:13.547Z,74.80
2023-03-12T00:30:13.529Z,74.91
2023-03-12T00:31:13.525Z,75.12
2023-03-12T00:32:13.520Z,75.32
2023-03-12T00:33:13.488Z,75.53
2023-03-12T00:34:13.475Z,75.53
2023-03-12T00:35:13.498Z,75.63
2023-03-12T00:36:13.471Z,75.95
2023-03-12T00:37:13.466Z,76.16
2023-03-12T00:38:13.427Z,76.26
2023-03-12T00:39:13.428Z,76.26
2023-03-12T00:40:13.409Z,76.68
2023-03-12T00:41:13.407Z,76.89
2023-03-12T00:42:13.405Z,77.00
2023-03-12T00:43:13.384Z,77.20
2023-03-12T00:44:13.364Z,77.72
2023-03-12T00:45:13.394Z,78.35
2023-03-12T00:46:13.404Z,79.11
2023-03-12T00:47:13.347Z,79.53
2023-03-12T00:48:13.336Z,79.95
2023-03-12T00:49:13.316Z,80.05
2023-03-12T00:50:13.318Z,80.05
2023-03-12T00:51:13.304Z,80.27
2023-03-12T00:52:13.295Z,80.47
2023-03-12T00:53:13.274Z,80.37
2023-03-12T00:54:13.389Z,80.37
2023-03-12T00:55:13.259Z,80.47
2023-03-12T00:56:13.241Z,80.58
2023-03-12T00:57:13.244Z,80.99
2023-03-12T00:58:13.223Z,81.21
2023-03-12T00:59:13.213Z,81.31
2023-03-12T01:00:13.193Z,81.41
2023-03-12T01:01:13.262Z,81.73
2023-03-12T01:02:13.194Z,81.83
2023-03-12T01:03:13.176Z,81.83
2023-03-12T01:04:13.174Z,81.83
2023-03-12T01:05:13.154Z,81.93
2023-03-12T01:06:13.140Z,81.93
2023-03-12T01:07:13.127Z,81.93
2023-03-12T01:08:13.125Z,81.83
2023-03-12T01:09:13.132Z,81.83
2023-03-12T01:10:13.098Z,82.14
2023-03-12T01:11:13.090Z,82.35
2023-03-12T01:12:13.080Z,82.46
2023-03-12T01:13:13.070Z,82.46
2023-03-12T01:14:13.080Z,82.56
2023-03-12T01:15:13.050Z,82.77
2023-03-12T01:16:13.047Z,82.87
2023-03-12T01:17:13.030Z,82.77
2023-03-12T01:18:13.028Z,83.08
2023-03-12T01:19:13.020Z,83.29
2023-03-12T01:20:12.994Z,83.50
2023-03-12T01:21:12.990Z,83.61
2023-03-12T01:22:12.989Z,83.71
2023-03-12T01:23:12.973Z,83.71
2023-03-12T01:24:12.950Z,83.50
2023-03-12T01:25:12.948Z,83.40
2023-03-12T01:26:12.968Z,83.40
2023-03-12T01:27:12.932Z,83.50
2023-03-12T01:28:12.915Z,83.47
2023-03-12T01:29:12.904Z,83.36
2023-03-12T01:30:12.890Z,83.57
2023-03-12T01:31:13.002Z,83.67
2023-03-12T01:32:12.872Z,83.67
2023-03-12T01:33:12.895Z,83.67
2023-03-12T01:34:12.850Z,83.78
2023-03-12T01:35:12.918Z,83.78
2023-03-12T01:36:12.878Z,83.67
2023-03-12T01:37:12.822Z,83.67
2023-03-12T01:38:12.800Z,83.67
2023-03-12T01:39:12.818Z,83.78
2023-03-12T01:40:12.785Z,83.67
2023-03-12T01:41:12.778Z,83.67
2023-03-12T01:42:12.768Z,83.67
2023-03-12T01:43:12.767Z,83.78
2023-03-12T01:44:12.748Z,83.78
2023-03-12T01:45:12.737Z,83.67
2023-03-12T01:46:12.779Z,83.88
2023-03-12T01:47:12.710Z,83.78
2023-03-12T01:48:12.716Z,83.78
2023-03-12T01:49:12.686Z,83.78
2023-03-12T01:50:12.696Z,83.78
2023-03-12T01:51:12.666Z,83.67
2023-03-12T01:52:12.655Z,83.63
2023-03-12T01:53:12.647Z,83.53
2023-03-12T01:54:12.651Z,83.42
2023-03-12T01:55:12.625Z,83.42
2023-03-12T01:56:12.613Z,83.32
2023-03-12T01:57:12.606Z,83.32
2023-03-12T01:58:12.595Z,83.42
2023-03-12T01:59:12.597Z,83.42
2023-03-12T02:00:12.592Z,83.32
2023-03-12T02:01:12.621Z,83.22
2023-03-12T02:02:12.544Z,83.22
2023-03-12T02:03:12.545Z,83.22
2023-03-12T02:04:12.611Z,83.11
2023-03-12T02:05:12.537Z,83.22
2023-03-12T02:06:12.505Z,83.22
2023-03-12T02:07:12.503Z,83.11
2023-03-12T02:08:12.489Z,83.22
2023-03-12T02:09:12.483Z,83.42
2023-03-12T02:10:12.474Z,83.32
2023-03-12T02:11:12.455Z,83.32
2023-03-12T02:12:12.444Z,83.11
2023-03-12T02:13:12.435Z,83.11
2023-03-12T02:14:12.427Z,83.11
2023-03-12T02:15:12.416Z,83.11
2023-03-12T02:16:13.903Z,83.22
2023-03-12T02:17:12.416Z,83.22
2023-03-12T02:18:12.386Z,83.32
2023-03-12T02:19:12.379Z,83.22
2023-03-12T02:20:12.377Z,83.11
2023-03-12T02:21:12.358Z,83.11
2023-03-12T02:22:12.346Z,83.22
2023-03-12T02:23:12.336Z,83.32
2023-03-12T02:24:12.336Z,83.42
2023-03-12T02:25:12.307Z,83.53
2023-03-12T02:26:12.298Z,83.42
2023-03-12T02:27:12.334Z,83.53
2023-03-12T02:28:12.279Z,83.53
2023-03-12T02:29:12.268Z,83.42
2023-03-12T02:30:12.277Z,83.32
2023-03-12T02:31:12.258Z,83.32
2023-03-12T02:32:12.257Z,83.42
2023-03-12T02:33:12.228Z,83.42
2023-03-12T02:34:12.217Z,83.53
2023-03-12T02:35:12.218Z,83.63
2023-03-12T02:36:12.249Z,83.53
2023-03-12T02:37:12.198Z,83.42
2023-03-12T02:38:12.178Z,83.53
2023-03-12T02:39:12.168Z,83.63
2023-03-12T02:40:12.149Z,83.63
2023-03-12T02:41:12.147Z,83.74
2023-03-12T02:42:12.145Z,83.74
2023-03-12T02:43:12.128Z,83.84
2023-03-12T02:44:12.110Z,83.84
2023-03-12T02:45:12.111Z,83.84
2023-03-12T02:46:12.129Z,83.84
2023-03-12T02:47:12.098Z,83.84
2023-03-12T02:48:12.069Z,83.84
2023-03-12T02:49:12.068Z,83.84
2023-03-12T02:50:12.045Z,83.74
2023-03-12T02:51:12.039Z,83.42
2023-03-12T02:52:12.041Z,83.22
2023-03-12T02:53:12.020Z,83.22
2023-03-12T02:54:11.999Z,83.11
2023-03-12T02:55:12.003Z,83.11
2023-03-12T02:56:11.983Z,83.01
2023-03-12T02:57:11.980Z,82.90
2023-03-12T02:58:11.969Z,83.01
2023-03-12T02:59:11.972Z,83.01
2023-03-12T03:00:11.978Z,82.90
2023-03-12T03:01:11.952Z,83.01
2023-03-12T03:02:11.918Z,83.01
2023-03-12T03:03:11.912Z,82.90
2023-03-12T03:04:11.940Z,82.80
2023-03-12T03:05:11.890Z,82.73
2023-03-12T03:06:11.870Z,82.70
2023-03-12T03:07:11.870Z,82.59
2023-03-12T03:08:11.871Z,82.59
2023-03-12T03:09:11.850Z,82.59
2023-03-12T03:10:11.838Z,82.70
2023-03-12T03:11:11.823Z,82.48
2023-03-12T03:12:11.838Z,82.38
2023-03-12T03:13:11.810Z,82.38
2023-03-12T03:14:11.792Z,82.48
2023-03-12T03:15:11.795Z,82.59
2023-03-12T03:16:11.846Z,82.59
2023-03-12T03:17:11.760Z,82.48
2023-03-12T03:18:11.753Z,82.38
2023-03-12T03:19:11.740Z,82.48
2023-03-12T03:20:11.735Z,82.28
2023-03-12T03:21:11.722Z,82.17
2023-03-12T03:22:11.712Z,82.17
2023-03-12T03:23:11.702Z,82.07
2023-03-12T03:24:11.716Z,82.28
2023-03-12T03:25:11.697Z,82.28
2023-03-12T03:26:11.676Z,82.28
2023-03-12T03:27:11.654Z,82.17
2023-03-12T03:28:11.653Z,82.17
2023-03-12T03:29:11.743Z,82.17
2023-03-12T03:30:11.633Z,82.17
2023-03-12T03:31:11.680Z,82.07
2023-03-12T03:32:11.610Z,81.76
2023-03-12T03:33:11.592Z,81.96
2023-03-12T03:34:11.582Z,82.07
2023-03-12T03:35:11.571Z,82.14
2023-03-12T03:36:11.580Z,81.93
2023-03-12T03:37:11.553Z,82.03
2023-03-12T03:38:11.542Z,82.03
2023-03-12T03:39:11.529Z,82.14
2023-03-12T03:40:11.528Z,81.93
2023-03-12T03:41:11.514Z,82.03
2023-03-12T03:42:11.501Z,81.93
2023-03-12T03:43:11.491Z,81.62
2023-03-12T03:44:11.492Z,81.82
2023-03-12T03:45:11.464Z,81.82
2023-03-12T03:46:11.495Z,81.62
2023-03-12T03:47:11.448Z,81.51
2023-03-12T03:48:11.453Z,81.51
2023-03-12T03:49:11.432Z,81.41
2023-03-12T03:50:11.419Z,81.20
2023-03-12T03:51:11.404Z,81.05
2023-03-12T03:52:11.416Z,80.85
2023-03-12T03:53:11.378Z,80.95
2023-03-12T03:54:11.375Z,81.05
2023-03-12T03:55:11.361Z,81.16
2023-03-12T03:56:11.354Z,81.37
2023-03-12T03:57:11.351Z,81.16
2023-03-12T03:58:11.364Z,81.16
2023-03-12T03:59:11.332Z,81.05
2023-03-12T04:00:11.324Z,80.85
2023-03-12T04:01:11.304Z,80.74
2023-03-12T04:02:11.292Z,80.74
2023-03-12T04:03:11.289Z,80.64
2023-03-12T04:04:11.272Z,80.64
2023-03-12T04:05:11.294Z,80.54
2023-03-12T04:06:11.251Z,80.40
2023-03-12T04:07:11.253Z,80.19
2023-03-12T04:08:11.231Z,80.08
2023-03-12T04:09:11.218Z,80.19
2023-03-12T04:10:11.207Z,80.19
2023-03-12T04:11:11.190Z,80.19
2023-03-12T04:12:11.203Z,80.19
2023-03-12T04:13:11.171Z,80.29
2023-03-12T04:14:11.165Z,80.40
2023-03-12T04:15:11.149Z,80.29
2023-03-12T04:16:11.254Z,80.29
2023-03-12T04:17:11.153Z,80.08
2023-03-12T04:18:11.152Z,79.98
2023-03-12T04:19:11.103Z,80.08
2023-03-12T04:20:11.109Z,80.08
2023-03-12T04:21:11.085Z,80.29
2023-03-12T04:22:11.092Z,80.29
2023-03-12T04:23:11.080Z,80.19
2023-03-12T04:24:11.060Z,80.08
2023-03-12T04:25:11.041Z,79.98
2023-03-12T04:26:11.043Z,80.08
2023-03-12T04:27:11.044Z,79.98
2023-03-12T04:28:11.012Z,80.19
2023-03-12T04:29:11.012Z,80.19
2023-03-12T04:30:10.996Z,80.19
2023-03-12T04:31:11.012Z,80.19
2023-03-12T04:32:11.002Z,80.19
2023-03-12T04:33:10.964Z,80.08
2023-03-12T04:34:13.934Z,79.87
2023-03-12T04:35:10.942Z,79.83
2023-03-12T04:36:10.944Z,79.73
2023-03-12T04:37:10.913Z,79.73
2023-03-12T04:38:10.919Z,79.83
2023-03-12T04:39:10.903Z,79.73
2023-03-12T04:40:10.923Z,79.73
2023-03-12T04:41:10.886Z,79.63
2023-03-12T04:42:10.879Z,79.52
2023-03-12T04:43:10.859Z,79.52
2023-03-12T04:44:12.743Z,79.52
2023-03-12T04:45:10.836Z,79.52
2023-03-12T04:46:10.919Z,79.52
2023-03-12T04:47:10.828Z,79.52
2023-03-12T04:48:10.807Z,79.42
2023-03-12T04:49:10.820Z,79.32
2023-03-12T04:50:10.791Z,79.42
2023-03-12T04:51:10.783Z,79.32
2023-03-12T04:52:10.788Z,79.32
2023-03-12T04:53:10.778Z,79.11
2023-03-12T04:54:10.747Z,79.21
2023-03-12T04:55:10.747Z,79.11
2023-03-12T04:56:10.728Z,79.11
2023-03-12T04:57:10.718Z,79.32
2023-03-12T04:58:10.713Z,79.21
2023-03-12T04:59:10.708Z,79.21
2023-03-12T05:00:10.708Z,79.32
2023-03-12T05:01:10.669Z,79.21
2023-03-12T05:02:10.671Z,79.32
2023-03-12T05:03:10.698Z,79.21
2023-03-12T05:04:10.703Z,79.42
2023-03-12T05:05:10.657Z,79.32
2023-03-12T05:06:10.628Z,79.21
2023-03-12T05:07:10.617Z,79.11
2023-03-12T05:08:10.601Z,79.21
2023-03-12T05:09:10.606Z,79.17
2023-03-12T05:10:10.594Z,79.17
2023-03-12T05:11:10.571Z,79.07
2023-03-12T05:12:10.562Z,78.97
2023-03-12T05:13:10.550Z,78.97
2023-03-12T05:14:10.571Z,79.07
2023-03-12T05:15:10.531Z,78.97
2023-03-12T05:16:10.534Z,78.86
2023-03-12T05:17:10.518Z,78.97
2023-03-12T05:18:10.499Z,78.97
2023-03-12T05:19:10.479Z,78.86
2023-03-12T05:20:10.486Z,78.76
2023-03-12T05:21:10.478Z,78.76
2023-03-12T05:22:10.460Z,78.76
2023-03-12T05:23:10.440Z,78.97
2023-03-12T05:24:10.442Z,79.07
2023-03-12T05:25:10.421Z,78.97
2023-03-12T05:26:10.416Z,78.86
2023-03-12T05:27:10.407Z,78.97
2023-03-12T05:28:10.410Z,78.97
2023-03-12T05:29:10.398Z,78.97
2023-03-12T05:30:10.380Z,78.97
2023-03-12T05:31:10.403Z,78.86
2023-03-12T05:32:10.375Z,78.86
2023-03-12T05:33:10.334Z,78.86
2023-03-12T05:34:10.331Z,78.86
2023-03-12T05:35:10.360Z,78.97
2023-03-12T05:36:10.355Z,78.86
2023-03-12T05:37:10.314Z,78.72
2023-03-12T05:38:10.289Z,78.93
2023-03-12T05:39:10.279Z,78.62
2023-03-12T05:40:10.271Z,78.41
2023-03-12T05:41:10.269Z,78.41
2023-03-12T05:42:10.242Z,78.31
2023-03-12T05:43:10.232Z,78.31
2023-03-12T05:44:10.253Z,78.31
2023-03-12T05:45:10.238Z,78.52
2023-03-12T05:46:10.283Z,78.52
2023-03-12T05:47:10.190Z,78.52
2023-03-12T05:48:10.186Z,78.41
2023-03-12T05:49:10.180Z,78.52
2023-03-12T05:50:10.175Z,78.52
2023-03-12T05:51:10.143Z,78.52
2023-03-12T05:52:10.144Z,78.52
2023-03-12T05:53:10.121Z,78.62
2023-03-12T05:54:10.124Z,78.72
2023-03-12T05:55:10.130Z,78.83
2023-03-12T05:56:10.248Z,78.93
2023-03-12T05:57:10.926Z,79.03
2023-03-12T05:58:10.099Z,79.14
2023-03-12T05:59:10.058Z,79.24
2023-03-12T06:00:10.079Z,79.03
2023-03-12T06:01:10.037Z,79.14
2023-03-12T06:02:10.082Z,79.03
2023-03-12T06:03:10.067Z,79.14
2023-03-12T06:04:10.007Z,79.24
2023-03-12T06:05:10.030Z,79.35
2023-03-12T06:06:09.985Z,79.76
2023-03-12T06:07:09.981Z,79.94
2023-03-12T06:08:09.968Z,80.04
2023-03-12T06:09:09.973Z,80.56
2023-03-12T06:10:09.953Z,80.87
2023-03-12T06:11:09.945Z,80.98
2023-03-12T06:12:09.924Z,80.98
2023-03-12T06:13:09.906Z,80.87
2023-03-12T06:14:09.910Z,81.18
2023-03-12T06:15:09.887Z,81.49
2023-03-12T06:16:10.003Z,81.60
2023-03-12T06:17:09.866Z,81.81
2023-03-12T06:18:09.904Z,82.22
2023-03-12T06:19:09.844Z,82.53
2023-03-12T06:20:09.843Z,82.53
2023-03-12T06:21:09.833Z,82.22
2023-03-12T06:22:09.815Z,82.53
2023-03-12T06:23:09.806Z,82.64
2023-03-12T06:24:09.847Z,82.64
2023-03-12T06:25:09.785Z,82.53
2023-03-12T06:26:09.776Z,82.64
2023-03-12T06:27:09.769Z,82.74
2023-03-12T06:28:09.757Z,83.05
2023-03-12T06:29:09.745Z,83.26
2023-03-12T06:30:09.747Z,83.47
2023-03-12T06:31:09.763Z,83.78
2023-03-12T06:32:09.718Z,83.68
2023-03-12T06:33:09.696Z,83.58
2023-03-12T06:34:09.706Z,83.58
2023-03-12T06:35:09.698Z,83.64
2023-03-12T06:36:09.666Z,83.74
2023-03-12T06:37:09.654Z,83.74
2023-03-12T06:38:09.645Z,83.95
2023-03-12T06:39:09.672Z,84.16
2023-03-12T06:40:09.658Z,84.47
2023-03-12T06:41:09.613Z,84.58
2023-03-12T06:42:09.618Z,84.89
2023-03-12T06:43:09.589Z,84.99
2023-03-12T06:44:09.586Z,85.20
2023-03-12T06:45:09.668Z,85.41
2023-03-12T06:46:09.892Z,85.72
2023-03-12T06:47:09.553Z,85.82
2023-03-12T06:48:09.548Z,85.82
2023-03-12T06:49:09.527Z,85.93
2023-03-12T06:50:09.606Z,86.24
2023-03-12T06:51:09.505Z,86.44
2023-03-12T06:52:09.498Z,86.55
2023-03-12T06:53:09.489Z,86.76
2023-03-12T06:54:09.484Z,87.07
2023-03-12T06:55:09.477Z,87.38
2023-03-12T06:56:09.454Z,87.69
2023-03-12T06:57:09.467Z,88.00
2023-03-12T06:58:09.436Z,88.42
2023-03-12T06:59:09.427Z,88.52
2023-03-12T07:00:09.448Z,88.62
2023-03-12T07:01:09.407Z,88.73
2023-03-12T07:02:09.425Z,89.15
2023-03-12T07:03:09.396Z,89.36
2023-03-12T07:04:09.378Z,89.56
2023-03-12T07:05:09.408Z,89.67
2023-03-12T07:06:09.370Z,89.56
2023-03-12T07:07:10.451Z,89.56
2023-03-12T07:08:09.341Z,89.77
2023-03-12T07:09:10.054Z,90.08
2023-03-12T07:10:09.394Z,90.29
2023-03-12T07:11:09.602Z,90.39
2023-03-12T07:12:09.612Z,90.39
2023-03-12T07:13:09.581Z,90.35
2023-03-12T07:14:09.293Z,90.35
2023-03-12T07:15:09.262Z,90.45
2023-03-12T07:16:09.303Z,90.56
2023-03-12T07:17:09.241Z,90.45
2023-03-12T07:18:09.239Z,90.45
2023-03-12T07:19:09.271Z,90.56
2023-03-12T07:20:09.240Z,90.56
2023-03-12T07:21:09.219Z,90.35
2023-03-12T07:22:09.197Z,90.41
2023-03-12T07:23:09.185Z,90.77
2023-03-12T07:24:09.174Z,90.93
2023-03-12T07:25:09.165Z,90.83
2023-03-12T07:26:09.167Z,90.72
2023-03-12T07:27:09.147Z,90.83
2023-03-12T07:28:09.127Z,90.93
2023-03-12T07:29:09.119Z,90.93
2023-03-12T07:30:09.119Z,90.93
2023-03-12T07:31:09.405Z,91.14
2023-03-12T07:32:09.097Z,91.14
2023-03-12T07:33:09.960Z,91.14
2023-03-12T07:34:09.174Z,90.93
2023-03-12T07:35:09.787Z,90.89
2023-03-12T07:36:09.180Z,90.69
2023-03-12T07:37:10.570Z,90.79
2023-03-12T07:38:09.053Z,90.79
2023-03-12T07:39:09.077Z,90.89
2023-03-12T07:40:09.067Z,91.00
2023-03-12T07:41:09.772Z,91.62
2023-03-12T07:42:09.031Z,92.14
2023-03-12T07:43:09.665Z,92.20
2023-03-12T07:44:09.024Z,91.68
2023-03-12T07:45:09.078Z,91.16
2023-03-12T07:46:08.945Z,91.06
2023-03-12T07:47:22.571Z,90.95
2023-03-12T07:48:09.952Z,90.75
2023-03-12T07:49:08.929Z,90.64
2023-03-12T07:50:08.922Z,90.60
2023-03-12T07:51:08.918Z,91.02
2023-03-12T07:52:08.911Z,90.91
2023-03-12T07:53:08.862Z,90.70
2023-03-12T07:54:08.855Z,90.19
2023-03-12T07:55:08.935Z,90.08
2023-03-12T07:56:08.926Z,89.98
2023-03-12T07:57:09.021Z,89.77
2023-03-12T07:58:08.942Z,89.56
2023-03-12T07:59:08.907Z,89.15
2023-03-12T08:00:08.900Z,89.31
2023-03-12T08:01:08.868Z,89.52
2023-03-12T08:02:08.899Z,89.62
2023-03-12T08:03:09.094Z,89.83
2023-03-12T08:04:08.879Z,89.83
2023-03-12T08:05:08.758Z,89.83
2023-03-12T08:06:08.778Z,89.83
2023-03-12T08:07:09.397Z,89.73
2023-03-12T08:08:08.775Z,89.73
2023-03-12T08:09:08.693Z,89.83
2023-03-12T08:10:08.752Z,89.94
2023-03-12T08:11:08.677Z,89.73
2023-03-12T08:12:09.439Z,89.52
2023-03-12T08:13:08.705Z,89.42
2023-03-12T08:14:09.376Z,89.21
2023-03-12T08:15:08.643Z,88.90
2023-03-12T08:16:09.652Z,88.90
2023-03-12T08:17:08.622Z,88.79
2023-03-12T08:18:08.624Z,88.76
2023-03-12T08:19:08.606Z,88.96
2023-03-12T08:20:08.584Z,88.96
2023-03-12T08:21:08.562Z,88.76
2023-03-12T08:22:08.552Z,88.45
2023-03-12T08:23:08.543Z,88.39
2023-03-12T08:24:08.546Z,88.65
2023-03-12T08:25:08.632Z,88.96
2023-03-12T08:26:08.521Z,88.86
2023-03-12T08:27:08.515Z,88.76
2023-03-12T08:28:08.484Z,88.76
2023-03-12T08:29:08.483Z,88.86
2023-03-12T08:30:08.464Z,88.65
2023-03-12T08:31:08.461Z,88.24
2023-03-12T08:32:08.461Z,88.13
2023-03-12T08:33:08.574Z,88.34
2023-03-12T08:34:08.428Z,88.65
2023-03-12T08:35:08.416Z,88.76
2023-03-12T08:36:08.441Z,88.51
2023-03-12T08:37:08.404Z,88.30
2023-03-12T08:38:08.384Z,87.99
2023-03-12T08:39:08.384Z,87.99
2023-03-12T08:40:08.363Z,88.51
2023-03-12T08:41:08.360Z,88.30
2023-03-12T08:42:08.343Z,88.51
2023-03-12T08:43:08.326Z,88.71
2023-03-12T08:44:08.325Z,88.51
2023-03-12T08:45:08.305Z,88.46
2023-03-12T08:46:09.832Z,88.46
2023-03-12T08:47:08.321Z,88.57
2023-03-12T08:48:08.276Z,88.36
2023-03-12T08:49:08.276Z,88.36
2023-03-12T08:50:08.246Z,88.36
2023-03-12T08:51:08.243Z,88.16
2023-03-12T08:52:08.229Z,88.16
2023-03-12T08:53:08.228Z,88.12
2023-03-12T08:54:08.226Z,88.22
2023-03-12T08:55:08.217Z,88.43
2023-03-12T08:56:08.185Z,88.32
2023-03-12T08:57:08.179Z,88.01
2023-03-12T08:58:08.162Z,87.91
2023-03-12T08:59:08.177Z,88.01
2023-03-12T09:00:08.140Z,88.07
2023-03-12T09:01:08.149Z,87.97
2023-03-12T09:02:08.119Z,87.87
2023-03-12T09:03:08.178Z,87.87
2023-03-12T09:04:08.663Z,87.66
2023-03-12T09:05:08.090Z,87.66
2023-03-12T09:06:08.102Z,87.87
2023-03-12T09:07:08.070Z,88.18
2023-03-12T09:08:08.067Z,88.18
2023-03-12T09:09:08.100Z,88.07
2023-03-12T09:10:08.043Z,87.83
2023-03-12T09:11:08.042Z,87.83
2023-03-12T09:12:08.031Z,87.83
2023-03-12T09:13:08.031Z,87.73
2023-03-12T09:15:00.940Z,87.31
2023-03-12T09:15:09.149Z,87.52
2023-03-12T09:16:07.995Z,87.62
2023-03-12T09:17:08.725Z,87.93
2023-03-12T09:18:09.091Z,87.83
2023-03-12T09:19:09.131Z,88.24
2023-03-12T09:20:07.988Z,88.31
2023-03-12T09:21:08.712Z,88.10
2023-03-12T09:22:08.172Z,88.10
2023-03-12T09:23:08.609Z,88.31
2023-03-12T09:24:07.958Z,88.31
2023-03-12T09:25:08.606Z,88.20
2023-03-12T09:26:07.938Z,88.26
2023-03-12T09:27:08.218Z,88.26
2023-03-12T09:28:07.941Z,88.16
2023-03-12T09:29:09.401Z,88.02
2023-03-12T09:30:07.859Z,88.12
2023-03-12T09:31:08.012Z,87.92
2023-03-12T09:32:07.831Z,87.92
2023-03-12T09:33:08.219Z,87.60
2023-03-12T09:34:07.976Z,87.50
2023-03-12T09:35:08.962Z,87.40
2023-03-12T09:36:07.853Z,87.26
2023-03-12T09:37:07.929Z,87.29
2023-03-12T09:38:07.760Z,87.56
2023-03-12T09:39:07.889Z,87.66
2023-03-12T09:40:07.869Z,87.98
2023-03-12T09:41:07.856Z,87.87
2023-03-12T09:42:07.734Z,87.77
2023-03-12T09:43:08.407Z,87.87
2023-03-12T09:44:07.819Z,87.73
2023-03-12T09:45:07.730Z,87.73
2023-03-12T09:46:07.710Z,87.73
2023-03-12T09:47:07.716Z,87.83
2023-03-12T09:48:07.891Z,87.63
2023-03-12T09:49:08.393Z,87.52
2023-03-12T09:50:07.639Z,87.32
2023-03-12T09:51:09.548Z,87.11
2023-03-12T09:52:07.684Z,87.21
2023-03-12T09:53:07.653Z,87.27
2023-03-12T09:54:07.692Z,87.17
2023-03-12T09:55:07.621Z,87.17
2023-03-12T09:56:07.711Z,87.17
2023-03-12T09:57:07.629Z,87.24
2023-03-12T09:58:07.570Z,87.13
2023-03-12T09:59:07.592Z,87.03
2023-03-12T10:00:07.613Z,87.13
2023-03-12T10:01:08.079Z,87.34
2023-03-12T10:02:07.896Z,87.24
2023-03-12T10:03:09.993Z,86.99
2023-03-12T10:04:08.231Z,86.99
2023-03-12T10:05:07.732Z,87.19
2023-03-12T10:06:07.588Z,87.19
2023-03-12T10:07:07.464Z,87.36
2023-03-12T10:08:23.528Z,87.46
2023-03-12T10:09:09.133Z,87.67
2023-03-12T10:10:07.425Z,87.57
2023-03-12T10:11:07.607Z,87.46
2023-03-12T10:12:07.404Z,87.42
2023-03-12T10:13:07.418Z,87.42
2023-03-12T10:14:07.663Z,87.42
2023-03-12T10:15:07.508Z,87.38
2023-03-12T10:16:07.573Z,87.18
2023-03-12T10:17:07.375Z,86.66
2023-03-12T10:18:07.453Z,86.52
2023-03-12T10:19:07.502Z,86.42
2023-03-12T10:20:07.297Z,86.42
2023-03-12T10:21:07.276Z,86.62
2023-03-12T10:22:07.277Z,86.48
2023-03-12T10:23:07.285Z,86.58
2023-03-12T10:24:07.246Z,86.48
2023-03-12T10:25:07.235Z,86.54
2023-03-12T10:26:07.233Z,85.82
2023-03-12T10:27:07.213Z,85.62
2023-03-12T10:28:07.209Z,85.21
2023-03-12T10:29:07.236Z,85.11
2023-03-12T10:30:07.374Z,84.49
2023-03-12T10:31:07.289Z,84.76
2023-03-12T10:32:07.382Z,84.55
2023-03-12T10:33:07.161Z,84.45
2023-03-12T10:34:07.204Z,84.76
2023-03-12T10:35:07.135Z,84.96
2023-03-12T10:36:07.856Z,85.17
2023-03-12T10:37:07.111Z,85.99
2023-03-12T10:38:07.814Z,85.68
2023-03-12T10:39:07.096Z,85.06
2023-03-12T10:40:07.775Z,85.17
2023-03-12T10:41:07.082Z,85.89
2023-03-12T10:42:07.333Z,86.40
2023-03-12T10:43:07.053Z,86.71
2023-03-12T10:44:07.755Z,86.54
2023-03-12T10:45:07.128Z,86.13
2023-03-12T10:46:07.059Z,86.13
2023-03-12T10:47:07.015Z,86.24
2023-03-12T10:48:07.035Z,86.03
2023-03-12T10:49:07.026Z,86.13
2023-03-12T10:50:07.002Z,86.33
2023-03-12T10:51:07.034Z,86.44
2023-03-12T10:52:06.971Z,87.05
2023-03-12T10:53:06.989Z,86.95
2023-03-12T10:54:07.096Z,87.05
2023-03-12T10:55:07.086Z,87.26
2023-03-12T10:56:06.944Z,87.05
2023-03-12T10:57:06.980Z,87.16
2023-03-12T10:58:07.020Z,87.37
2023-03-12T10:59:06.864Z,87.57
2023-03-12T11:00:07.118Z,87.77
2023-03-12T11:01:06.847Z,87.88
2023-03-12T11:02:06.938Z,88.29
2023-03-12T11:03:06.837Z,89.31
2023-03-12T11:04:06.809Z,90.14
2023-03-12T11:05:06.798Z,91.37
2023-03-12T11:06:06.861Z,91.99
2023-03-12T11:07:07.028Z,93.27
2023-03-12T11:08:06.788Z,94.10
2023-03-12T11:09:21.930Z,94.20
2023-03-12T11:10:07.780Z,94.61
2023-03-12T11:11:06.738Z,94.87
2023-03-12T11:12:06.720Z,95.28
2023-03-12T11:13:06.709Z,95.49
2023-03-12T11:14:06.701Z,95.34
2023-03-12T11:15:06.704Z,95.03
2023-03-12T11:16:06.727Z,95.14
2023-03-12T11:17:06.669Z,95.09
2023-03-12T11:18:06.684Z,95.15
2023-03-12T11:19:06.649Z,94.95
2023-03-12T11:20:06.628Z,93.77
2023-03-12T11:21:06.631Z,92.75
2023-03-12T11:22:06.610Z,92.81
2023-03-12T11:23:06.745Z,92.50
2023-03-12T11:24:06.690Z,92.46
2023-03-12T11:25:06.881Z,92.25
2023-03-12T11:26:06.590Z,92.36
2023-03-12T11:27:06.569Z,92.36
2023-03-12T11:28:06.582Z,92.05
2023-03-12T11:29:06.590Z,91.95
2023-03-12T11:30:06.583Z,92.15
2023-03-12T11:31:06.613Z,91.95
2023-03-12T11:32:06.535Z,91.85
2023-03-12T11:33:06.510Z,92.05
2023-03-12T11:34:06.491Z,91.80
2023-03-12T11:35:06.471Z,91.91
2023-03-12T11:36:06.462Z,90.94
2023-03-12T11:37:06.472Z,90.23
2023-03-12T11:38:06.451Z,90.02
2023-03-12T11:39:06.451Z,89.41
2023-03-12T11:40:06.420Z,89.17
2023-03-12T11:41:06.402Z,88.96
2023-03-12T11:42:06.413Z,88.51
2023-03-12T11:43:06.382Z,87.29
2023-03-12T11:44:06.387Z,86.77
2023-03-12T11:45:06.463Z,86.33
2023-03-12T11:46:06.465Z,86.33
2023-03-12T11:47:07.073Z,86.02
2023-03-12T11:48:06.380Z,85.51
2023-03-12T11:49:07.135Z,85.41
2023-03-12T11:50:06.334Z,84.90
2023-03-12T11:51:07.023Z,85.00
2023-03-12T11:52:06.308Z,85.10
2023-03-12T11:53:06.332Z,85.10
2023-03-12T11:54:06.308Z,85.55
2023-03-12T11:55:06.348Z,85.24
2023-03-12T11:56:06.256Z,85.45
2023-03-12T11:57:06.945Z,85.75
2023-03-12T11:58:06.237Z,86.16
2023-03-12T11:59:06.257Z,86.57
2023-03-12T12:00:06.216Z,86.91
2023-03-12T12:01:06.237Z,87.53
2023-03-12T12:02:06.290Z,87.73
2023-03-12T12:03:06.309Z,87.90
2023-03-12T12:04:06.168Z,87.18
2023-03-12T12:05:06.146Z,86.61
2023-03-12T12:06:06.158Z,86.41
2023-03-12T12:07:06.135Z,86.51
2023-03-12T12:08:06.144Z,86.41
2023-03-12T12:09:06.118Z,86.30
2023-03-12T12:10:06.101Z,86.10
2023-03-12T12:11:06.109Z,86.20
2023-03-12T12:12:06.094Z,85.45
2023-03-12T12:13:06.098Z,85.04
2023-03-12T12:14:06.123Z,84.69
2023-03-12T12:15:06.134Z,84.69
2023-03-12T12:16:06.083Z,84.80
2023-03-12T12:17:06.026Z,84.96
2023-03-12T12:18:06.277Z,84.04
2023-03-12T12:19:05.994Z,83.94
2023-03-12T12:20:05.989Z,83.63
2023-03-12T12:21:06.015Z,83.29
2023-03-12T12:22:05.983Z,83.18
2023-03-12T12:23:05.977Z,83.80
2023-03-12T12:24:05.964Z,83.25
2023-03-12T12:25:05.932Z,82.43
2023-03-12T12:26:05.950Z,81.17
2023-03-12T12:27:06.066Z,80.77
2023-03-12T12:28:06.186Z,80.32
2023-03-12T12:29:05.892Z,78.89
2023-03-12T12:30:05.886Z,78.58
2023-03-12T12:31:05.871Z,78.41
2023-03-12T12:32:05.951Z,77.81
2023-03-12T12:33:05.846Z,78.21
2023-03-12T12:34:05.880Z,78.52
2023-03-12T12:35:05.836Z,78.15
2023-03-12T12:36:05.885Z,78.55
2023-03-12T12:37:05.802Z,78.05
2023-03-12T12:38:05.796Z,78.55
2023-03-12T12:39:05.782Z,78.28
2023-03-12T12:40:06.034Z,78.69
2023-03-12T12:41:05.794Z,79.54
2023-03-12T12:42:05.755Z,79.54
2023-03-12T12:43:05.749Z,79.75
2023-03-12T12:44:05.743Z,79.14
2023-03-12T12:45:05.731Z,79.34
2023-03-12T12:46:05.754Z,79.44
2023-03-12T12:47:05.718Z,79.54
2023-03-12T12:48:05.691Z,79.34
2023-03-12T12:49:05.687Z,79.14
2023-03-12T12:50:05.666Z,79.24
2023-03-12T12:51:08.666Z,79.48
2023-03-12T12:52:05.658Z,79.68